Time;durP1;ratioP1;P1;durP2;ratioP2;P2;SDS_P1;SDS_P2;PMS_P1;PMS_P2;Temp;Humidity;BMP_temperature;BMP_pressure;BME280_temperature;BME280_humidity;BME280_pressure;Samples;Min_cycle;Max_cycle;Signal;HPM_P1;HPM_P2
2021/09/02 00:01:52;;;;;;;5.43;4.90;;;14.10;99.90;;;;;;5043071;28;20179;-83
2021/09/02 00:04:17;;;;;;;7.63;4.77;;;14.10;99.90;;;;;;5022821;28;20179;-83
2021/09/02 00:06:43;;;;;;;5.50;5.00;;;14.00;99.90;;;;;;5017807;28;20207;-82
2021/09/02 00:09:09;;;;;;;5.37;4.87;;;14.00;99.90;;;;;;5019796;28;20633;-83
2021/09/02 00:11:34;;;;;;;6.07;5.17;;;14.00;99.90;;;;;;5016012;28;20646;-83
2021/09/02 00:14:00;;;;;;;5.93;5.43;;;14.00;99.90;;;;;;5015384;28;20199;-83
2021/09/02 00:16:26;;;;;;;5.43;4.93;;;14.00;99.90;;;;;;5013621;28;20179;-83
2021/09/02 00:18:51;;;;;;;5.33;4.83;;;13.90;99.90;;;;;;5018687;28;20239;-83
2021/09/02 00:21:17;;;;;;;5.73;5.20;;;13.90;99.90;;;;;;5029625;28;20258;-83
2021/09/02 00:23:42;;;;;;;6.40;4.87;;;13.90;99.90;;;;;;5018216;28;20595;-82
2021/09/02 00:26:08;;;;;;;5.47;4.97;;;13.90;99.90;;;;;;5050589;28;20548;-81
2021/09/02 00:28:34;;;;;;;6.70;5.73;;;13.90;99.90;;;;;;5055742;28;20173;-82
2021/09/02 00:30:59;;;;;;;5.73;5.13;;;13.90;99.90;;;;;;5054590;28;20189;-82
2021/09/02 00:33:25;;;;;;;5.27;4.77;;;13.90;99.90;;;;;;5055289;28;20235;-82
2021/09/02 00:35:51;;;;;;;5.67;5.17;;;13.90;99.90;;;;;;5054181;28;20556;-82
2021/09/02 00:38:16;;;;;;;5.50;4.93;;;13.90;99.90;;;;;;5055105;28;20206;-82
2021/09/02 00:40:42;;;;;;;6.37;5.37;;;13.90;99.90;;;;;;5054226;28;20231;-82
2021/09/02 00:43:07;;;;;;;5.33;4.87;;;13.90;99.90;;;;;;5054577;28;20181;-83
2021/09/02 00:45:33;;;;;;;6.10;4.60;;;13.90;99.90;;;;;;5054956;28;20200;-82
2021/09/02 00:47:59;;;;;;;5.97;5.37;;;13.90;99.90;;;;;;5044521;28;20212;-82
2021/09/02 00:50:25;;;;;;;7.93;5.10;;;13.90;99.90;;;;;;5053103;28;20636;-82
2021/09/02 00:52:51;;;;;;;6.13;5.53;;;13.80;99.90;;;;;;5054159;28;20185;-82
2021/09/02 00:55:17;;;;;;;5.97;5.43;;;13.80;99.90;;;;;;5053203;28;20182;-82
2021/09/02 00:57:42;;;;;;;6.90;4.93;;;13.80;99.90;;;;;;5041185;28;20204;-82
2021/09/02 01:00:13;;;;;;;5.83;5.33;;;13.80;99.90;;;;;;5055008;28;20174;-82
2021/09/02 01:02:42;;;;;;;7.00;6.00;;;13.80;99.90;;;;;;5055752;28;20181;-82
2021/09/02 01:05:08;;;;;;;6.13;5.37;;;13.80;99.90;;;;;;5054362;28;20181;-82
2021/09/02 01:07:35;;;;;;;6.23;5.27;;;13.80;99.90;;;;;;5055773;28;20189;-82
2021/09/02 01:10:03;;;;;;;5.57;5.13;;;13.80;99.90;;;;;;5055183;28;20185;-82
2021/09/02 01:12:38;;;;;;;6.07;5.57;;;13.80;99.90;;;;;;5055553;28;20260;-82
2021/09/02 01:15:06;;;;;;;7.10;5.47;;;13.80;99.90;;;;;;5045278;28;20174;-82
2021/09/02 01:17:32;;;;;;;8.23;5.30;;;13.80;99.90;;;;;;5035189;28;20210;-83
2021/09/02 01:19:59;;;;;;;5.97;5.47;;;13.70;99.90;;;;;;5035403;28;20212;-82
2021/09/02 01:22:29;;;;;;;6.10;5.20;;;13.70;99.90;;;;;;5037050;28;20212;-82
2021/09/02 01:25:07;;;;;;;5.80;5.30;;;13.80;99.90;;;;;;5055667;28;20548;-82
2021/09/02 01:27:32;;;;;;;5.47;5.00;;;13.70;99.90;;;;;;5053497;28;20667;-82
2021/09/02 01:30:00;;;;;;;5.60;5.10;;;13.60;99.90;;;;;;5055516;28;20224;-82
2021/09/02 01:32:30;;;;;;;7.20;4.93;;;;;;;;;;5055100;28;20181;-82
2021/09/02 01:34:57;;;;;;;5.67;5.23;;;13.60;99.90;;;;;;5054723;28;20181;-82
2021/09/02 01:37:24;;;;;;;6.80;5.77;;;13.60;99.90;;;;;;5054597;28;20201;-82
2021/09/02 01:39:52;;;;;;;6.10;5.50;;;;;;;;;;5056257;28;20208;-83
2021/09/02 01:42:21;;;;;;;6.80;6.20;;;;;;;;;;5058843;28;20166;-82
2021/09/02 01:44:47;;;;;;;6.63;5.80;;;;;;;;;;5059248;28;20609;-82
2021/09/02 01:47:20;;;;;;;6.90;5.43;;;;;;;;;;5042544;28;20241;-84
2021/09/02 01:49:46;;;;;;;6.43;5.73;;;;;;;;;;5036997;28;20190;-83
2021/09/02 01:52:12;;;;;;;6.20;5.60;;;;;;;;;;5055341;28;20637;-82
2021/09/02 01:54:38;;;;;;;6.37;5.77;;;;;;;;;;5054807;28;20179;-82
2021/09/02 01:57:07;;;;;;;6.10;5.60;;;;;;;;;;5057819;28;20638;-82
2021/09/02 01:59:33;;;;;;;6.07;5.57;;;;;;;;;;5057071;28;20723;-82
2021/09/02 02:01:59;;;;;;;6.20;5.60;;;;;;;;;;5058426;28;20663;-83
2021/09/02 02:04:25;;;;;;;6.40;5.80;;;;;;;;;;5057286;28;20184;-82
2021/09/02 02:06:51;;;;;;;6.90;6.10;;;;;;;;;;5056876;28;20194;-82
2021/09/02 02:09:17;;;;;;;6.33;5.73;;;;;;;;;;5057145;28;20185;-82
2021/09/02 02:11:43;;;;;;;5.60;5.17;;;13.40;99.90;;;;;;5057605;28;20234;-82
2021/09/02 02:14:09;;;;;;;7.00;6.40;;;13.30;99.90;;;;;;5058126;28;20205;-82
2021/09/02 02:16:35;;;;;;;5.77;5.27;;;13.30;99.90;;;;;;5058269;28;20232;-82
2021/09/02 02:19:01;;;;;;;5.67;5.17;;;13.20;99.90;;;;;;5056895;28;20205;-82
2021/09/02 02:21:26;;;;;;;5.93;5.40;;;13.30;99.90;;;;;;5041241;28;20253;-82
2021/09/02 02:23:52;;;;;;;6.50;5.83;;;13.20;99.90;;;;;;5058689;28;20650;-82
2021/09/02 02:26:17;;;;;;;6.37;5.77;;;13.20;99.90;;;;;;5058234;28;20231;-82
2021/09/02 02:28:43;;;;;;;6.53;5.67;;;13.20;99.90;;;;;;5058207;28;20181;-82
2021/09/02 02:31:09;;;;;;;6.33;5.83;;;13.20;99.90;;;;;;5054847;28;20683;-82
2021/09/02 02:33:34;;;;;;;6.30;5.80;;;13.20;99.90;;;;;;5046668;28;20184;-82
2021/09/02 02:36:00;;;;;;;6.40;5.63;;;13.20;99.90;;;;;;5058222;28;20184;-82
2021/09/02 02:38:25;;;;;;;6.57;5.90;;;13.10;99.90;;;;;;5056825;28;20219;-82
2021/09/02 02:40:51;;;;;;;6.17;5.57;;;13.10;99.90;;;;;;5056658;28;20177;-82
2021/09/02 02:43:17;;;;;;;6.83;6.23;;;13.00;99.90;;;;;;5058172;28;20543;-82
2021/09/02 02:45:42;;;;;;;5.90;5.30;;;13.00;99.90;;;;;;5057740;28;20224;-82
2021/09/02 02:48:08;;;;;;;6.87;6.17;;;13.00;99.90;;;;;;5057994;28;20204;-81
2021/09/02 02:50:34;;;;;;;6.80;5.70;;;13.00;99.90;;;;;;5054023;28;20265;-82
2021/09/02 02:53:00;;;;;;;6.80;6.07;;;13.00;99.90;;;;;;5048489;28;20188;-82
2021/09/02 02:55:26;;;;;;;7.90;6.23;;;13.00;99.90;;;;;;5023363;28;20181;-83
2021/09/02 02:57:53;;;;;;;6.33;5.73;;;13.00;99.90;;;;;;5016744;28;20206;-83
2021/09/02 03:00:19;;;;;;;6.97;6.03;;;12.90;99.90;;;;;;5016925;28;20208;-83
2021/09/02 03:02:45;;;;;;;6.77;6.17;;;12.90;99.90;;;;;;5014929;28;20214;-82
2021/09/02 03:05:11;;;;;;;6.33;5.60;;;13.00;99.90;;;;;;5019987;28;20692;-83
2021/09/02 03:07:37;;;;;;;6.30;5.70;;;12.90;99.90;;;;;;5032612;28;20201;-82
2021/09/02 03:10:05;;;;;;;7.00;6.30;;;13.00;99.90;;;;;;5028408;28;20175;-82
2021/09/02 03:12:31;;;;;;;7.43;6.73;;;13.00;99.90;;;;;;5021672;28;20220;-82
2021/09/02 03:14:56;;;;;;;7.27;6.13;;;13.00;99.90;;;;;;5015436;28;20181;-82
2021/09/02 03:17:22;;;;;;;7.53;6.80;;;12.90;99.90;;;;;;5018545;28;20298;-82
2021/09/02 03:19:47;;;;;;;6.50;5.90;;;12.90;99.90;;;;;;5052189;28;20178;-82
2021/09/02 03:22:13;;;;;;;6.87;6.27;;;13.00;99.90;;;;;;5032282;28;20225;-82
2021/09/02 03:24:39;;;;;;;7.07;6.37;;;13.00;99.90;;;;;;5055640;28;20187;-81
2021/09/02 03:27:05;;;;;;;10.43;6.03;;;13.00;99.90;;;;;;5056939;28;20284;-82
2021/09/02 03:29:30;;;;;;;6.63;6.07;;;12.90;99.90;;;;;;5057387;28;20180;-82
2021/09/02 03:31:56;;;;;;;8.10;6.30;;;12.90;99.90;;;;;;5057556;28;20182;-82
2021/09/02 03:34:22;;;;;;;6.80;6.13;;;12.90;99.90;;;;;;5056029;28;20177;-82
2021/09/02 03:36:48;;;;;;;7.07;6.47;;;12.90;99.90;;;;;;5042856;28;20193;-81
2021/09/02 03:39:14;;;;;;;6.93;6.33;;;12.90;99.90;;;;;;5057057;28;20510;-82
2021/09/02 03:41:41;;;;;;;7.00;6.33;;;12.80;99.90;;;;;;5056828;28;20231;-81
2021/09/02 03:44:07;;;;;;;6.73;6.13;;;12.80;99.90;;;;;;5057056;28;20678;-81
2021/09/02 03:46:32;;;;;;;7.13;6.27;;;12.80;99.90;;;;;;5056390;28;20197;-81
2021/09/02 03:48:58;;;;;;;6.87;6.27;;;12.80;99.90;;;;;;5055607;28;20213;-82
2021/09/02 03:51:24;;;;;;;6.63;6.03;;;12.80;99.90;;;;;;5056180;28;20210;-82
2021/09/02 03:53:49;;;;;;;7.87;6.07;;;12.80;99.90;;;;;;5055903;28;20735;-81
2021/09/02 03:56:15;;;;;;;7.20;6.50;;;12.80;99.90;;;;;;5055162;28;20185;-81
2021/09/02 03:58:40;;;;;;;6.33;5.80;;;12.80;99.90;;;;;;5056560;28;20572;-80
2021/09/02 04:01:06;;;;;;;7.73;6.47;;;12.70;99.90;;;;;;5042815;28;20177;-84
2021/09/02 04:03:32;;;;;;;6.80;5.97;;;12.60;99.90;;;;;;5037186;28;20178;-82
2021/09/02 04:05:57;;;;;;;7.13;6.43;;;12.70;99.90;;;;;;5038688;28;20244;-82
2021/09/02 04:08:23;;;;;;;6.37;5.87;;;12.70;99.90;;;;;;5047393;28;20259;-82
2021/09/02 04:10:49;;;;;;;7.43;6.47;;;12.60;99.90;;;;;;5041044;28;20254;-82
2021/09/02 04:13:14;;;;;;;7.50;6.70;;;12.60;99.90;;;;;;5054698;28;20177;-81
2021/09/02 04:15:40;;;;;;;6.80;6.20;;;12.50;99.90;;;;;;5054344;28;20249;-82
2021/09/02 04:18:05;;;;;;;7.10;6.50;;;12.50;99.90;;;;;;5045690;28;20631;-81
2021/09/02 04:20:31;;;;;;;7.93;7.17;;;12.50;99.90;;;;;;5039437;28;20175;-81
2021/09/02 04:22:57;;;;;;;8.57;6.47;;;12.50;99.90;;;;;;5054163;28;20282;-81
2021/09/02 04:25:22;;;;;;;7.13;6.43;;;12.50;99.90;;;;;;5043925;28;20171;-81
2021/09/02 04:27:48;;;;;;;7.33;6.73;;;12.50;99.90;;;;;;5052353;28;20235;-81
2021/09/02 04:30:14;;;;;;;7.50;6.43;;;12.40;99.90;;;;;;5053914;28;20184;-82
2021/09/02 04:32:43;;;;;;;8.70;7.20;;;12.40;99.90;;;;;;5054796;28;20234;-81
2021/09/02 04:35:10;;;;;;;6.87;6.27;;;12.40;99.90;;;;;;5049385;28;20260;-82
2021/09/02 04:37:43;;;;;;;7.37;6.67;;;12.40;99.90;;;;;;5012466;28;20213;-81
2021/09/02 04:40:09;;;;;;;7.77;7.07;;;12.40;99.90;;;;;;5015699;28;20256;-82
2021/09/02 04:42:35;;;;;;;7.70;6.90;;;12.40;99.90;;;;;;5016532;28;20265;-81
2021/09/02 04:45:02;;;;;;;9.33;7.40;;;12.40;99.90;;;;;;5034640;28;20676;-81
2021/09/02 04:47:28;;;;;;;7.70;7.00;;;12.40;99.90;;;;;;5048130;28;20193;-81
2021/09/02 04:49:55;;;;;;;7.77;7.07;;;12.40;99.90;;;;;;5035874;28;20177;-82
2021/09/02 04:52:21;;;;;;;10.07;7.37;;;12.40;99.90;;;;;;5055140;28;20178;-82
2021/09/02 04:54:46;;;;;;;8.00;7.20;;;12.40;99.90;;;;;;5050519;28;20699;-81
2021/09/02 04:57:12;;;;;;;7.73;6.93;;;12.40;99.90;;;;;;5053305;28;20232;-81
2021/09/02 04:59:37;;;;;;;7.80;6.83;;;12.40;99.90;;;;;;5054615;28;20196;-81
2021/09/02 05:02:03;;;;;;;8.83;6.70;;;12.40;99.90;;;;;;5054725;28;20245;-82
2021/09/02 05:04:29;;;;;;;7.87;7.07;;;12.40;99.90;;;;;;5056180;28;20691;-81
2021/09/02 05:06:55;;;;;;;7.73;6.93;;;12.40;99.90;;;;;;5040515;28;20293;-81
2021/09/02 05:09:20;;;;;;;7.57;6.87;;;12.40;99.90;;;;;;5039203;28;20183;-81
2021/09/02 05:11:46;;;;;;;7.80;7.03;;;12.40;99.90;;;;;;5055109;28;20178;-81
2021/09/02 05:14:12;;;;;;;7.97;7.17;;;12.40;99.90;;;;;;5047483;28;20687;-82
2021/09/02 05:16:38;;;;;;;8.30;7.57;;;12.40;99.90;;;;;;5020021;28;20205;-82
2021/09/02 05:19:03;;;;;;;8.27;7.40;;;12.40;99.90;;;;;;5021163;28;20198;-82
2021/09/02 05:21:29;;;;;;;7.27;6.63;;;12.40;99.90;;;;;;5022775;28;20177;-79
2021/09/02 05:23:55;;;;;;;10.83;7.27;;;12.40;99.90;;;;;;5017710;28;20179;-82
2021/09/02 05:26:21;;;;;;;7.47;6.77;;;12.40;99.90;;;;;;5016483;28;20189;-82
2021/09/02 05:28:46;;;;;;;7.77;6.97;;;12.40;99.90;;;;;;5039079;28;20543;-82
2021/09/02 05:31:12;;;;;;;7.60;6.90;;;12.40;99.90;;;;;;5057212;28;20176;-82
2021/09/02 05:33:38;;;;;;;8.50;7.63;;;12.40;99.90;;;;;;5032555;28;20190;-82
2021/09/02 05:36:04;;;;;;;8.37;7.10;;;12.50;99.90;;;;;;5028323;28;20551;-82
2021/09/02 05:38:30;;;;;;;8.30;7.40;;;12.50;99.90;;;;;;5030787;28;20212;-82
2021/09/02 05:40:56;;;;;;;7.50;6.57;;;12.50;99.90;;;;;;5030885;28;20272;-82
2021/09/02 05:43:22;;;;;;;8.67;7.80;;;12.60;99.90;;;;;;5023066;28;20175;-82
2021/09/02 05:45:47;;;;;;;8.10;7.33;;;12.60;99.90;;;;;;5033069;28;20182;-83
2021/09/02 05:48:13;;;;;;;8.10;6.43;;;12.60;99.90;;;;;;5027798;28;20288;-83
2021/09/02 05:50:39;;;;;;;7.40;6.70;;;12.70;99.90;;;;;;5022380;28;20192;-83
2021/09/02 05:53:04;;;;;;;7.53;6.83;;;12.70;99.90;;;;;;5021159;28;20186;-83
2021/09/02 05:55:30;;;;;;;7.90;7.20;;;12.70;99.90;;;;;;5028086;28;20187;-83
2021/09/02 05:57:56;;;;;;;8.33;7.27;;;12.70;99.90;;;;;;5029586;28;20210;-84
2021/09/02 06:00:21;;;;;;;7.97;7.17;;;12.80;99.90;;;;;;5029986;28;20236;-83
2021/09/02 06:02:47;;;;;;;8.80;7.80;;;12.80;99.90;;;;;;5028732;28;20678;-83
2021/09/02 06:05:12;;;;;;;9.57;7.47;;;12.90;99.90;;;;;;5026884;28;20664;-82
2021/09/02 06:07:38;;;;;;;8.80;7.87;;;12.90;99.90;;;;;;5021886;28;20195;-82
2021/09/02 06:10:05;;;;;;;8.20;7.50;;;13.00;99.90;;;;;;5032452;28;20192;-82
2021/09/02 06:12:31;;;;;;;8.37;7.57;;;13.10;99.90;;;;;;5023781;28;20200;-83
2021/09/02 06:14:56;;;;;;;8.90;7.97;;;13.10;99.90;;;;;;5023519;28;20182;-82
2021/09/02 06:17:22;;;;;;;8.90;8.10;;;13.10;99.90;;;;;;5035130;28;20584;-83
2021/09/02 06:19:47;;;;;;;10.50;8.60;;;13.20;99.90;;;;;;5030111;28;20178;-82
2021/09/02 06:22:13;;;;;;;8.63;7.83;;;13.20;99.90;;;;;;5046300;28;20189;-82
2021/09/02 06:24:39;;;;;;;9.60;7.83;;;13.20;99.90;;;;;;5057689;28;20264;-82
2021/09/02 06:27:04;;;;;;;11.93;9.17;;;13.30;99.90;;;;;;5048734;28;20202;-82
2021/09/02 06:29:30;;;;;;;9.53;8.53;;;13.30;99.90;;;;;;5044063;28;20197;-82
2021/09/02 06:31:56;;;;;;;9.30;8.40;;;13.40;99.90;;;;;;5060419;28;20308;-83
2021/09/02 06:34:21;;;;;;;9.50;8.57;;;13.40;99.90;;;;;;5061182;28;20184;-82
2021/09/02 06:36:47;;;;;;;9.03;8.23;;;13.40;99.90;;;;;;5060170;28;20201;-83
2021/09/02 06:39:13;;;;;;;10.83;8.87;;;13.50;99.90;;;;;;5033029;28;20182;-82
2021/09/02 06:41:39;;;;;;;8.90;8.10;;;13.50;99.90;;;;;;5032438;28;20206;-82
2021/09/02 06:44:05;;;;;;;9.17;8.27;;;13.60;99.90;;;;;;5016915;28;20265;-83
2021/09/02 06:46:30;;;;;;;9.93;8.93;;;13.70;99.90;;;;;;5015043;28;20199;-83
2021/09/02 06:48:57;;;;;;;9.67;8.67;;;13.70;99.90;;;;;;5028390;28;20230;-83
2021/09/02 06:51:22;;;;;;;10.43;9.47;;;13.80;99.90;;;;;;5033863;28;20187;-82
2021/09/02 06:53:48;;;;;;;10.20;9.23;;;13.80;99.90;;;;;;5025968;28;20252;-83
2021/09/02 06:56:14;;;;;;;9.40;8.40;;;13.90;99.90;;;;;;5031317;28;20606;-83
2021/09/02 06:58:40;;;;;;;10.77;8.93;;;13.90;99.90;;;;;;5028902;28;20217;-82
2021/09/02 07:01:05;;;;;;;11.53;8.90;;;14.00;99.90;;;;;;5022665;28;20236;-83
2021/09/02 07:03:31;;;;;;;9.83;8.93;;;14.00;99.90;;;;;;5033131;28;20194;-84
2021/09/02 07:05:57;;;;;;;10.57;9.50;;;14.10;99.90;;;;;;5034931;28;20628;-82
2021/09/02 07:08:22;;;;;;;9.73;8.93;;;14.10;99.90;;;;;;5022448;28;20195;-82
2021/09/02 07:10:48;;;;;;;10.07;9.17;;;14.20;99.90;;;;;;5041067;28;20178;-82
2021/09/02 07:13:14;;;;;;;10.57;9.43;;;14.20;99.90;;;;;;5061487;28;20189;-83
2021/09/02 07:15:39;;;;;;;9.90;9.10;;;14.30;99.90;;;;;;5045020;28;20196;-82
2021/09/02 07:18:05;;;;;;;9.80;8.90;;;14.30;99.90;;;;;;5046752;28;20270;-82
2021/09/02 07:20:31;;;;;;;9.23;8.43;;;14.40;99.90;;;;;;5045112;28;20180;-83
2021/09/02 07:22:57;;;;;;;9.53;7.50;;;14.50;99.90;;;;;;5058651;28;20176;-83
2021/09/02 07:25:23;;;;;;;8.50;7.57;;;14.60;99.90;;;;;;5057271;28;20174;-82
2021/09/02 07:27:49;;;;;;;8.23;7.43;;;14.60;99.90;;;;;;5060139;28;20204;-81
2021/09/02 07:30:14;;;;;;;7.77;7.07;;;14.70;99.90;;;;;;5058497;28;20189;-82
2021/09/02 07:32:40;;;;;;;7.73;7.03;;;14.80;99.90;;;;;;5055481;28;20178;-82
2021/09/02 07:35:06;;;;;;;10.97;9.67;;;14.90;99.90;;;;;;5058932;28;20224;-82
2021/09/02 07:37:32;;;;;;;11.20;10.10;;;14.90;99.90;;;;;;5041466;28;20206;-81
2021/09/02 07:39:58;;;;;;;11.30;10.30;;;14.90;99.90;;;;;;5056717;28;20193;-83
2021/09/02 07:42:23;;;;;;;10.70;9.67;;;14.90;99.90;;;;;;5053189;28;20562;-82
2021/09/02 07:44:49;;;;;;;10.87;9.87;;;15.00;99.90;;;;;;5053332;28;20181;-82
2021/09/02 07:47:15;;;;;;;10.40;9.40;;;15.00;99.90;;;;;;5046031;28;20197;-83
2021/09/02 07:49:41;;;;;;;9.63;8.67;;;15.10;99.90;;;;;;5043091;28;20236;-83
2021/09/02 07:52:09;;;;;;;11.40;9.57;;;15.10;99.90;;;;;;5053661;28;20246;-83
2021/09/02 07:54:35;;;;;;;10.13;9.13;;;15.20;99.90;;;;;;5022040;28;20187;-81
2021/09/02 07:57:02;;;;;;;9.67;8.67;;;15.20;99.90;;;;;;5028004;28;20199;-82
2021/09/02 07:59:27;;;;;;;9.70;8.80;;;15.30;99.90;;;;;;5061065;28;20177;-82
2021/09/02 08:01:53;;;;;;;10.23;8.40;;;15.40;99.90;;;;;;5059180;28;20179;-81
2021/09/02 08:04:19;;;;;;;8.80;8.00;;;15.40;99.90;;;;;;5060489;28;20174;-81
2021/09/02 08:06:44;;;;;;;9.17;8.20;;;15.40;99.90;;;;;;5059776;28;20193;-82
2021/09/02 08:09:10;;;;;;;8.77;7.73;;;15.50;99.90;;;;;;5046610;28;20257;-83
2021/09/02 08:11:36;;;;;;;8.70;8.00;;;15.50;99.90;;;;;;5060458;28;20189;-83
2021/09/02 08:14:01;;;;;;;8.17;7.47;;;15.70;99.90;;;;;;5041672;28;20641;-83
2021/09/02 08:16:27;;;;;;;7.87;7.10;;;15.70;99.90;;;;;;5040279;28;20204;-82
2021/09/02 08:18:53;;;;;;;8.53;7.83;;;15.80;99.90;;;;;;5060627;28;20204;-83
2021/09/02 08:21:19;;;;;;;7.83;7.13;;;15.90;99.90;;;;;;5040925;28;20181;-83
2021/09/02 08:23:45;;;;;;;7.40;6.70;;;15.90;99.90;;;;;;5059948;28;20182;-82
2021/09/02 08:26:11;;;;;;;6.37;5.87;;;16.00;99.90;;;;;;5058658;28;20178;-81
2021/09/02 08:28:37;;;;;;;6.43;5.87;;;16.10;99.90;;;;;;5059165;28;20188;-82
2021/09/02 08:31:02;;;;;;;5.90;5.50;;;16.10;99.90;;;;;;5058844;28;20180;-83
2021/09/02 08:33:28;;;;;;;6.43;5.93;;;16.30;99.90;;;;;;5056557;28;20191;-83
2021/09/02 08:35:54;;;;;;;6.60;6.00;;;16.30;99.90;;;;;;5048680;28;20193;-83
2021/09/02 08:38:20;;;;;;;6.83;6.13;;;16.40;99.90;;;;;;5059493;28;20281;-82
2021/09/02 08:40:46;;;;;;;6.70;5.93;;;16.40;99.90;;;;;;5058791;28;20211;-82
2021/09/02 08:43:12;;;;;;;6.40;5.80;;;16.50;99.90;;;;;;5060073;28;20180;-82
2021/09/02 08:45:38;;;;;;;6.37;5.77;;;16.50;99.90;;;;;;5053814;28;20192;-82
2021/09/02 08:48:04;;;;;;;6.83;6.23;;;16.60;99.90;;;;;;5030799;28;20191;-83
2021/09/02 08:50:33;;;;;;;7.17;5.07;;;16.60;99.90;;;;;;5036657;28;20968;-82
2021/09/02 08:53:00;;;;;;;6.50;6.00;;;16.70;99.90;;;;;;5031482;28;20191;-82
2021/09/02 08:55:26;;;;;;;6.53;5.97;;;16.80;99.90;;;;;;5042275;28;20175;-82
2021/09/02 08:57:53;;;;;;;5.73;5.23;;;16.80;99.90;;;;;;5060237;28;20262;-82
2021/09/02 09:00:21;;;;;;;6.67;6.00;;;16.90;99.90;;;;;;5060718;28;20176;-82
2021/09/02 09:02:48;;;;;;;6.47;5.23;;;17.00;99.90;;;;;;5053550;28;20201;-82
2021/09/02 09:05:20;;;;;;;5.20;4.70;;;17.10;99.90;;;;;;5054866;28;20174;-82
2021/09/02 09:07:47;;;;;;;6.60;6.10;;;17.20;99.90;;;;;;5060158;28;20208;-83
2021/09/02 09:10:20;;;;;;;7.40;6.07;;;17.30;99.90;;;;;;5060158;28;20640;-83
2021/09/02 09:12:50;;;;;;;6.83;5.53;;;17.30;99.90;;;;;;5046246;28;20205;-82
2021/09/02 09:15:21;;;;;;;6.13;5.57;;;17.30;99.90;;;;;;5055212;28;20538;-83
2021/09/02 09:17:48;;;;;;;5.60;5.17;;;17.30;99.90;;;;;;5041639;28;20205;-81
2021/09/02 09:20:20;;;;;;;6.90;5.47;;;17.50;99.90;;;;;;5047000;28;20177;-83
2021/09/02 09:22:56;;;;;;;6.27;5.77;;;17.60;99.90;;;;;;5064321;28;20238;-81
2021/09/02 09:25:22;;;;;;;6.40;5.53;;;17.70;99.90;;;;;;5053369;28;20237;-81
2021/09/02 09:27:50;;;;;;;5.97;5.37;;;17.70;99.90;;;;;;5048280;28;20194;-81
2021/09/02 09:30:23;;;;;;;5.83;5.43;;;17.70;99.90;;;;;;5048237;28;20181;-81
2021/09/02 09:33:03;;;;;;;5.23;4.83;;;17.80;99.90;;;;;;5061528;28;20180;-81
2021/09/02 09:35:32;;;;;;;5.47;4.97;;;17.90;99.90;;;;;;5026594;28;20171;-82
2021/09/02 09:38:13;;;;;;;6.30;5.80;;;18.00;99.90;;;;;;5053734;28;20209;-81
2021/09/02 09:41:03;;;;;;;5.10;4.70;;;18.20;99.90;;;;;;5066600;28;20177;-81
2021/09/02 09:43:29;;;;;;;5.03;4.63;;;18.30;99.90;;;;;;5049813;28;20193;-82
2021/09/02 09:45:56;;;;;;;5.80;4.97;;;18.40;99.90;;;;;;5047854;28;20176;-82
2021/09/02 09:48:37;;;;;;;5.33;4.90;;;18.50;99.90;;;;;;5046655;28;20194;-82
2021/09/02 09:51:08;;;;;;;5.63;5.13;;;18.60;99.90;;;;;;5047750;28;20159;-83
2021/09/02 09:53:35;;;;;;;5.70;5.07;;;18.60;99.90;;;;;;5045949;28;20170;-82
2021/09/02 09:56:01;;;;;;;5.30;4.80;;;18.60;99.90;;;;;;5047501;28;20206;-82
2021/09/02 10:01:16;;;;;;;5.50;5.00;;;18.80;99.90;;;;;;5047340;28;20233;-83
2021/09/02 10:03:42;;;;;;;5.20;4.70;;;19.00;99.90;;;;;;5030360;28;20186;-83
2021/09/02 10:06:10;;;;;;;5.50;4.83;;;19.10;99.90;;;;;;5048490;28;20175;-83
2021/09/02 10:08:38;;;;;;;5.07;4.67;;;19.20;99.90;;;;;;5047876;28;20185;-83
2021/09/02 10:11:05;;;;;;;5.47;4.97;;;19.30;99.90;;;;;;5009967;28;20199;-83
2021/09/02 10:13:32;;;;;;;5.23;4.73;;;19.40;99.90;;;;;;4986849;28;20214;-83
2021/09/02 10:15:59;;;;;;;5.40;4.93;;;19.40;99.90;;;;;;5010238;28;20179;-84
2021/09/02 10:18:26;;;;;;;6.83;5.00;;;19.40;99.90;;;;;;5029031;28;20290;-84
2021/09/02 10:20:53;;;;;;;5.20;4.80;;;19.40;99.90;;;;;;5010732;28;20195;-84
2021/09/02 10:23:25;;;;;;;7.00;5.03;;;19.50;99.90;;;;;;5012745;28;20232;-84
2021/09/02 10:25:52;;;;;;;5.00;4.50;;;19.70;99.90;;;;;;5029016;28;20185;-84
2021/09/02 10:28:35;;;;;;;5.33;4.83;;;19.90;99.90;;;;;;5030784;28;20179;-82
2021/09/02 10:31:05;;;;;;;5.50;5.00;;;20.00;99.90;;;;;;5027003;28;20282;-84
2021/09/02 10:33:37;;;;;;;5.10;4.70;;;20.10;99.90;;;;;;5011543;28;20183;-84
2021/09/02 10:36:26;;;;;;;5.47;4.97;;;20.20;99.90;;;;;;4995360;28;20183;-84
2021/09/02 10:38:57;;;;;;;5.73;4.77;;;20.50;99.90;;;;;;5027581;28;20195;-84
2021/09/02 10:41:35;;;;;;;4.67;4.27;;;20.50;99.90;;;;;;5028231;28;20172;-84
2021/09/02 10:44:02;;;;;;;4.77;4.10;;;20.50;99.90;;;;;;5010115;28;20612;-81
2021/09/02 10:46:29;;;;;;;5.40;4.77;;;20.50;99.90;;;;;;5032024;28;20167;-82
2021/09/02 10:48:56;;;;;;;5.47;4.93;;;20.60;99.90;;;;;;5032129;28;20189;-80
2021/09/02 10:51:37;;;;;;;6.00;5.50;;;20.70;99.90;;;;;;5031437;28;20176;-81
2021/09/02 10:54:07;;;;;;;6.50;5.07;;;20.80;99.90;;;;;;5030545;28;20182;-82
2021/09/02 10:57:05;;;;;;;4.80;4.40;;;20.90;99.90;;;;;;5031797;28;20183;-80
2021/09/02 10:59:50;;;;;;;4.77;4.37;;;21.10;99.90;;;;;;5014868;28;20226;-82
2021/09/02 11:02:16;;;;;;;4.57;4.27;;;21.00;99.90;;;;;;5032902;28;20186;-81
2021/09/02 11:04:42;;;;;;;4.57;4.17;;;21.00;99.90;;;;;;5032810;28;20183;-82
2021/09/02 11:07:08;;;;;;;7.33;4.00;;;21.20;99.90;;;;;;5033226;28;20175;-80
2021/09/02 11:09:36;;;;;;;4.40;4.00;;;21.20;99.90;;;;;;5011023;28;20206;-82
2021/09/02 11:12:05;;;;;;;4.80;4.00;;;21.20;99.90;;;;;;5031672;28;20662;-81
2021/09/02 11:14:31;;;;;;;3.97;3.57;;;21.30;99.90;;;;;;5015785;28;20246;-81
2021/09/02 11:17:08;;;;;;;3.90;3.60;;;21.30;99.90;;;;;;5032559;28;20592;-81
2021/09/02 11:19:35;;;;;;;4.47;4.10;;;21.40;99.90;;;;;;5030261;28;20207;-80
2021/09/02 11:22:18;;;;;;;3.77;3.20;;;21.40;99.90;;;;;;5033005;28;20181;-81
2021/09/02 11:24:46;;;;;;;4.03;3.73;;;21.50;99.90;;;;;;5014488;28;20270;-80
2021/09/02 11:27:24;;;;;;;3.97;3.60;;;21.60;99.90;;;;;;5033073;28;20171;-81
2021/09/02 11:29:49;;;;;;;4.30;3.83;;;21.70;99.90;;;;;;5030610;28;20199;-81
2021/09/02 11:32:15;;;;;;;3.80;3.50;;;21.80;99.90;;;;;;5009703;28;20182;-81
2021/09/02 11:34:41;;;;;;;4.30;3.90;;;21.70;99.90;;;;;;5027783;28;20198;-79
2021/09/02 11:37:09;;;;;;;4.10;3.70;;;21.80;99.90;;;;;;5010139;28;20239;-79
2021/09/02 11:39:37;;;;;;;4.17;3.60;;;21.80;99.90;;;;;;5009981;28;20289;-80
2021/09/02 11:42:08;;;;;;;4.20;3.90;;;21.80;99.90;;;;;;5027948;28;20222;-79
2021/09/02 11:44:37;;;;;;;4.80;3.70;;;21.80;99.90;;;;;;5026796;28;20270;-80
2021/09/02 11:47:12;;;;;;;4.03;3.73;;;21.80;99.90;;;;;;5028462;28;20205;-79
2021/09/02 11:49:40;;;;;;;4.43;4.03;;;22.00;99.90;;;;;;5019431;28;20206;-79
2021/09/02 11:52:07;;;;;;;6.30;3.90;;;22.10;99.90;;;;;;5008040;28;20206;-79
2021/09/02 11:54:35;;;;;;;3.83;3.47;;;22.20;99.90;;;;;;5017752;28;20179;-80
2021/09/02 11:57:02;;;;;;;4.20;3.90;;;22.30;99.90;;;;;;5036839;28;20660;-80
2021/09/02 11:59:28;;;;;;;4.33;3.93;;;22.30;99.90;;;;;;5030359;28;20207;-80
2021/09/02 12:01:55;;;;;;;3.57;3.23;;;22.30;99.90;;;;;;5027677;28;20230;-80
2021/09/02 12:04:27;;;;;;;3.43;3.13;;;22.30;99.90;;;;;;5038390;28;20170;-80
2021/09/02 12:06:59;;;;;;;3.83;3.53;;;22.30;99.90;;;;;;5012861;28;20250;-81
2021/09/02 12:09:29;;;;;;;4.40;4.00;;;22.30;99.90;;;;;;5037083;28;20193;-80
2021/09/02 12:11:55;;;;;;;4.30;3.90;;;22.40;99.90;;;;;;5018400;28;20171;-80
2021/09/02 12:14:24;;;;;;;3.93;3.63;;;23.10;99.90;;;;;;5024218;28;20206;-81
2021/09/02 12:17:10;;;;;;;4.13;3.57;;;23.20;99.90;;;;;;5025823;28;20186;-80
2021/09/02 12:19:52;;;;;;;3.90;3.60;;;23.50;99.90;;;;;;5029753;28;20206;-80
2021/09/02 12:22:20;;;;;;;3.87;3.53;;;22.40;99.90;;;;;;5025236;28;20178;-80
2021/09/02 12:24:46;;;;;;;3.97;3.57;;;22.50;99.90;;;;;;5027482;28;20194;-80
2021/09/02 12:27:12;;;;;;;3.83;3.53;;;22.50;99.90;;;;;;5021643;28;20197;-81
2021/09/02 12:29:50;;;;;;;4.53;3.70;;;22.60;99.90;;;;;;5016312;28;20219;-80
2021/09/02 12:32:18;;;;;;;4.23;3.83;;;22.60;99.90;;;;;;5025082;28;20178;-81
2021/09/02 12:34:44;;;;;;;3.83;3.53;;;22.80;99.90;;;;;;5037364;28;20170;-80
2021/09/02 12:37:13;;;;;;;3.53;3.23;;;22.80;99.90;;;;;;5035160;28;20333;-81
2021/09/02 12:39:49;;;;;;;3.80;3.50;;;23.00;99.90;;;;;;5008203;28;20218;-81
2021/09/02 12:42:23;;;;;;;4.60;3.93;;;22.90;99.90;;;;;;5029115;28;20252;-79
2021/09/02 12:45:22;;;;;;;3.83;3.53;;;23.00;99.90;;;;;;5038703;28;20185;-80
2021/09/02 12:48:00;;;;;;;3.60;3.30;;;23.00;99.90;;;;;;5018698;28;20191;-80
2021/09/02 12:50:28;;;;;;;3.90;3.50;;;22.90;99.90;;;;;;5029250;28;20254;-80
2021/09/02 12:52:54;;;;;;;3.90;3.60;;;23.00;99.90;;;;;;4991396;28;20254;-81
2021/09/02 12:55:24;;;;;;;3.73;3.43;;;23.00;99.90;;;;;;5037346;28;20261;-81